sensor_id;sensor_type;location;lat;lon;timestamp;temperature;humidity
14705;DHT22;7442;50.840;3.396;2023-02-05T00:02:33;23.80;42.90
14705;DHT22;7442;50.840;3.396;2023-02-05T00:05:19;23.70;42.80
14705;DHT22;7442;50.840;3.396;2023-02-05T00:08:05;23.70;42.80
14705;DHT22;7442;50.840;3.396;2023-02-05T00:10:52;23.80;42.70
14705;DHT22;7442;50.840;3.396;2023-02-05T00:13:40;23.80;42.60
14705;DHT22;7442;50.840;3.396;2023-02-05T00:16:26;23.90;42.60
14705;DHT22;7442;50.840;3.396;2023-02-05T00:19:12;23.90;42.50
14705;DHT22;7442;50.840;3.396;2023-02-05T00:21:59;23.90;42.30
14705;DHT22;7442;50.840;3.396;2023-02-05T00:24:45;24.00;42.30
14705;DHT22;7442;50.840;3.396;2023-02-05T00:27:32;24.10;42.20
14705;DHT22;7442;50.840;3.396;2023-02-05T00:30:19;24.00;42.20
14705;DHT22;7442;50.840;3.396;2023-02-05T00:33:05;24.10;42.10
14705;DHT22;7442;50.840;3.396;2023-02-05T00:35:51;24.20;41.90
14705;DHT22;7442;50.840;3.396;2023-02-05T00:38:39;24.20;41.80
14705;DHT22;7442;50.840;3.396;2023-02-05T00:41:27;24.20;41.80
14705;DHT22;7442;50.840;3.396;2023-02-05T00:44:13;24.20;42.00
14705;DHT22;7442;50.840;3.396;2023-02-05T00:46:59;24.10;41.90
14705;DHT22;7442;50.840;3.396;2023-02-05T00:49:46;24.10;41.80
14705;DHT22;7442;50.840;3.396;2023-02-05T00:52:32;24.20;41.80
14705;DHT22;7442;50.840;3.396;2023-02-05T00:55:19;24.20;41.80
14705;DHT22;7442;50.840;3.396;2023-02-05T00:58:06;24.20;41.90
14705;DHT22;7442;50.840;3.396;2023-02-05T01:00:52;24.10;41.90
14705;DHT22;7442;50.840;3.396;2023-02-05T01:03:38;24.10;42.10
14705;DHT22;7442;50.840;3.396;2023-02-05T01:06:24;24.00;42.10
14705;DHT22;7442;50.840;3.396;2023-02-05T01:09:10;24.00;42.10
14705;DHT22;7442;50.840;3.396;2023-02-05T01:11:58;24.00;42.00
14705;DHT22;7442;50.840;3.396;2023-02-05T01:14:51;24.10;41.90
14705;DHT22;7442;50.840;3.396;2023-02-05T01:17:38;24.10;41.90
14705;DHT22;7442;50.840;3.396;2023-02-05T01:20:25;24.10;41.80
14705;DHT22;7442;50.840;3.396;2023-02-05T01:23:12;24.10;41.90
14705;DHT22;7442;50.840;3.396;2023-02-05T01:25:59;24.20;41.70
14705;DHT22;7442;50.840;3.396;2023-02-05T01:28:45;24.20;41.60
14705;DHT22;7442;50.840;3.396;2023-02-05T01:31:32;24.30;41.50
14705;DHT22;7442;50.840;3.396;2023-02-05T01:34:19;24.20;41.50
14705;DHT22;7442;50.840;3.396;2023-02-05T01:37:05;24.20;41.60
14705;DHT22;7442;50.840;3.396;2023-02-05T01:39:51;24.20;41.60
14705;DHT22;7442;50.840;3.396;2023-02-05T01:42:37;24.20;41.70
14705;DHT22;7442;50.840;3.396;2023-02-05T01:48:14;24.20;41.60
14705;DHT22;7442;50.840;3.396;2023-02-05T01:51:03;24.20;41.70
14705;DHT22;7442;50.840;3.396;2023-02-05T01:53:55;24.20;41.80
14705;DHT22;7442;50.840;3.396;2023-02-05T01:56:44;24.10;42.00
14705;DHT22;7442;50.840;3.396;2023-02-05T01:59:34;24.00;42.00
14705;DHT22;7442;50.840;3.396;2023-02-05T02:02:21;24.00;42.10
14705;DHT22;7442;50.840;3.396;2023-02-05T02:05:13;24.00;42.10
14705;DHT22;7442;50.840;3.396;2023-02-05T02:08:00;24.00;42.00
14705;DHT22;7442;50.840;3.396;2023-02-05T02:10:49;24.00;41.90
14705;DHT22;7442;50.840;3.396;2023-02-05T02:13:40;24.10;41.80
14705;DHT22;7442;50.840;3.396;2023-02-05T02:16:28;24.20;41.80
14705;DHT22;7442;50.840;3.396;2023-02-05T02:19:19;24.20;41.70
14705;DHT22;7442;50.840;3.396;2023-02-05T02:25:37;24.20;41.70
14705;DHT22;7442;50.840;3.396;2023-02-05T02:28:44;24.20;41.60
14705;DHT22;7442;50.840;3.396;2023-02-05T02:31:31;24.30;41.30
14705;DHT22;7442;50.840;3.396;2023-02-05T02:34:28;24.30;41.20
14705;DHT22;7442;50.840;3.396;2023-02-05T02:37:17;24.30;41.20
14705;DHT22;7442;50.840;3.396;2023-02-05T02:40:14;24.20;41.40
14705;DHT22;7442;50.840;3.396;2023-02-05T02:43:04;24.30;41.40
14705;DHT22;7442;50.840;3.396;2023-02-05T02:45:59;24.30;41.30
14705;DHT22;7442;50.840;3.396;2023-02-05T02:48:47;24.20;41.30
14705;DHT22;7442;50.840;3.396;2023-02-05T02:51:36;24.10;41.60
14705;DHT22;7442;50.840;3.396;2023-02-05T02:54:25;24.10;41.80
14705;DHT22;7442;50.840;3.396;2023-02-05T02:57:14;24.00;41.90
14705;DHT22;7442;50.840;3.396;2023-02-05T03:00:05;23.90;42.00
14705;DHT22;7442;50.840;3.396;2023-02-05T03:02:53;23.90;42.10
14705;DHT22;7442;50.840;3.396;2023-02-05T03:05:42;23.80;42.30
14705;DHT22;7442;50.840;3.396;2023-02-05T03:08:51;23.80;42.40
14705;DHT22;7442;50.840;3.396;2023-02-05T03:11:43;23.80;42.40
14705;DHT22;7442;50.840;3.396;2023-02-05T03:14:30;23.80;42.30
14705;DHT22;7442;50.840;3.396;2023-02-05T03:17:16;23.80;42.40
14705;DHT22;7442;50.840;3.396;2023-02-05T03:22:56;23.90;42.20
14705;DHT22;7442;50.840;3.396;2023-02-05T03:25:42;23.90;42.00
14705;DHT22;7442;50.840;3.396;2023-02-05T03:28:29;23.90;42.00
14705;DHT22;7442;50.840;3.396;2023-02-05T03:31:18;24.00;41.90
14705;DHT22;7442;50.840;3.396;2023-02-05T03:34:28;24.10;41.70
14705;DHT22;7442;50.840;3.396;2023-02-05T03:46:24;24.30;41.40
14705;DHT22;7442;50.840;3.396;2023-02-05T03:52:12;24.30;41.30
14705;DHT22;7442;50.840;3.396;2023-02-05T03:55:19;24.20;41.30
14705;DHT22;7442;50.840;3.396;2023-02-05T03:58:09;24.30;41.30
14705;DHT22;7442;50.840;3.396;2023-02-05T04:00:55;24.20;41.50
14705;DHT22;7442;50.840;3.396;2023-02-05T04:03:42;24.10;41.60
14705;DHT22;7442;50.840;3.396;2023-02-05T04:06:29;24.10;41.70
14705;DHT22;7442;50.840;3.396;2023-02-05T04:09:16;24.00;41.80
14705;DHT22;7442;50.840;3.396;2023-02-05T04:12:02;24.00;41.90
14705;DHT22;7442;50.840;3.396;2023-02-05T04:14:48;23.90;42.00
14705;DHT22;7442;50.840;3.396;2023-02-05T04:17:35;23.90;42.00
14705;DHT22;7442;50.840;3.396;2023-02-05T04:20:22;23.90;42.30
14705;DHT22;7442;50.840;3.396;2023-02-05T04:23:09;23.90;42.10
14705;DHT22;7442;50.840;3.396;2023-02-05T04:25:56;23.90;42.20
14705;DHT22;7442;50.840;3.396;2023-02-05T04:28:42;23.90;42.20
14705;DHT22;7442;50.840;3.396;2023-02-05T04:31:28;23.80;42.20
14705;DHT22;7442;50.840;3.396;2023-02-05T04:34:14;23.90;42.30
14705;DHT22;7442;50.840;3.396;2023-02-05T04:37:01;23.80;42.30
14705;DHT22;7442;50.840;3.396;2023-02-05T04:39:48;23.80;42.30
14705;DHT22;7442;50.840;3.396;2023-02-05T04:42:34;23.80;42.40
14705;DHT22;7442;50.840;3.396;2023-02-05T04:45:21;23.80;42.40
14705;DHT22;7442;50.840;3.396;2023-02-05T04:48:08;23.80;42.40
14705;DHT22;7442;50.840;3.396;2023-02-05T04:50:55;23.80;42.40
14705;DHT22;7442;50.840;3.396;2023-02-05T04:53:41;23.80;42.30
14705;DHT22;7442;50.840;3.396;2023-02-05T04:56:27;23.80;42.50
14705;DHT22;7442;50.840;3.396;2023-02-05T04:59:14;23.70;42.50
14705;DHT22;7442;50.840;3.396;2023-02-05T05:02:00;23.70;42.50
14705;DHT22;7442;50.840;3.396;2023-02-05T05:04:46;23.70;42.40
14705;DHT22;7442;50.840;3.396;2023-02-05T05:07:33;23.80;42.40
14705;DHT22;7442;50.840;3.396;2023-02-05T05:10:19;23.80;42.40
14705;DHT22;7442;50.840;3.396;2023-02-05T05:13:06;23.80;42.50
14705;DHT22;7442;50.840;3.396;2023-02-05T05:15:54;23.80;42.40
14705;DHT22;7442;50.840;3.396;2023-02-05T05:18:40;23.80;42.40
14705;DHT22;7442;50.840;3.396;2023-02-05T05:21:26;23.80;42.40
14705;DHT22;7442;50.840;3.396;2023-02-05T05:24:13;23.80;42.40
14705;DHT22;7442;50.840;3.396;2023-02-05T05:27:01;23.80;42.40
14705;DHT22;7442;50.840;3.396;2023-02-05T05:29:47;23.80;42.40
14705;DHT22;7442;50.840;3.396;2023-02-05T05:32:34;23.70;42.50
14705;DHT22;7442;50.840;3.396;2023-02-05T05:35:20;23.70;42.60
14705;DHT22;7442;50.840;3.396;2023-02-05T05:38:07;23.70;42.50
14705;DHT22;7442;50.840;3.396;2023-02-05T05:40:54;23.70;42.50
14705;DHT22;7442;50.840;3.396;2023-02-05T05:43:58;23.80;42.40
14705;DHT22;7442;50.840;3.396;2023-02-05T05:46:44;23.80;42.50
14705;DHT22;7442;50.840;3.396;2023-02-05T05:49:30;23.80;42.50
14705;DHT22;7442;50.840;3.396;2023-02-05T05:52:17;23.70;42.50
14705;DHT22;7442;50.840;3.396;2023-02-05T05:55:03;23.70;42.50
14705;DHT22;7442;50.840;3.396;2023-02-05T05:57:50;23.70;42.50
14705;DHT22;7442;50.840;3.396;2023-02-05T06:00:37;23.70;42.60
14705;DHT22;7442;50.840;3.396;2023-02-05T06:03:28;23.70;42.50
14705;DHT22;7442;50.840;3.396;2023-02-05T06:06:14;23.70;42.50
14705;DHT22;7442;50.840;3.396;2023-02-05T06:09:01;23.70;42.50
14705;DHT22;7442;50.840;3.396;2023-02-05T06:11:48;23.80;42.50
14705;DHT22;7442;50.840;3.396;2023-02-05T06:14:34;23.80;42.50
14705;DHT22;7442;50.840;3.396;2023-02-05T06:17:21;23.80;42.50
14705;DHT22;7442;50.840;3.396;2023-02-05T06:20:08;23.80;42.50
14705;DHT22;7442;50.840;3.396;2023-02-05T06:22:55;23.80;42.30
14705;DHT22;7442;50.840;3.396;2023-02-05T06:25:41;23.80;42.40
14705;DHT22;7442;50.840;3.396;2023-02-05T06:28:27;23.80;42.50
14705;DHT22;7442;50.840;3.396;2023-02-05T06:31:13;23.70;42.50
14705;DHT22;7442;50.840;3.396;2023-02-05T06:34:01;23.80;42.40
14705;DHT22;7442;50.840;3.396;2023-02-05T06:36:48;23.70;42.40
14705;DHT22;7442;50.840;3.396;2023-02-05T06:39:34;23.80;42.50
14705;DHT22;7442;50.840;3.396;2023-02-05T06:42:23;23.70;42.40
14705;DHT22;7442;50.840;3.396;2023-02-05T06:45:10;23.80;42.50
14705;DHT22;7442;50.840;3.396;2023-02-05T06:47:56;23.80;42.30
14705;DHT22;7442;50.840;3.396;2023-02-05T06:50:43;23.70;42.30
14705;DHT22;7442;50.840;3.396;2023-02-05T06:53:29;23.70;42.30
14705;DHT22;7442;50.840;3.396;2023-02-05T06:56:15;23.80;42.40
14705;DHT22;7442;50.840;3.396;2023-02-05T06:59:02;23.70;42.30
14705;DHT22;7442;50.840;3.396;2023-02-05T07:01:49;23.70;42.40
14705;DHT22;7442;50.840;3.396;2023-02-05T07:04:35;23.70;42.30
14705;DHT22;7442;50.840;3.396;2023-02-05T07:07:22;23.70;42.40
14705;DHT22;7442;50.840;3.396;2023-02-05T07:10:09;23.70;42.30
14705;DHT22;7442;50.840;3.396;2023-02-05T07:12:55;23.70;42.20
14705;DHT22;7442;50.840;3.396;2023-02-05T07:15:42;23.80;42.30
14705;DHT22;7442;50.840;3.396;2023-02-05T07:18:29;23.80;42.20
14705;DHT22;7442;50.840;3.396;2023-02-05T07:21:15;23.80;42.30
14705;DHT22;7442;50.840;3.396;2023-02-05T07:24:02;23.80;42.20
14705;DHT22;7442;50.840;3.396;2023-02-05T07:26:49;23.80;42.10
14705;DHT22;7442;50.840;3.396;2023-02-05T07:29:35;23.70;42.10
14705;DHT22;7442;50.840;3.396;2023-02-05T07:32:21;23.70;42.20
14705;DHT22;7442;50.840;3.396;2023-02-05T07:35:08;23.70;42.10
14705;DHT22;7442;50.840;3.396;2023-02-05T07:37:54;23.80;42.10
14705;DHT22;7442;50.840;3.396;2023-02-05T07:40:41;23.90;41.90
14705;DHT22;7442;50.840;3.396;2023-02-05T07:43:28;23.90;41.70
14705;DHT22;7442;50.840;3.396;2023-02-05T07:46:14;24.00;41.60
14705;DHT22;7442;50.840;3.396;2023-02-05T07:49:00;23.90;41.50
14705;DHT22;7442;50.840;3.396;2023-02-05T07:51:48;24.10;41.40
14705;DHT22;7442;50.840;3.396;2023-02-05T07:54:35;24.10;41.20
14705;DHT22;7442;50.840;3.396;2023-02-05T07:57:21;24.10;41.20
14705;DHT22;7442;50.840;3.396;2023-02-05T08:00:09;24.10;41.20
14705;DHT22;7442;50.840;3.396;2023-02-05T08:02:55;24.20;41.10
14705;DHT22;7442;50.840;3.396;2023-02-05T08:05:42;24.20;41.10
14705;DHT22;7442;50.840;3.396;2023-02-05T08:08:28;24.20;41.10
14705;DHT22;7442;50.840;3.396;2023-02-05T08:11:16;24.20;41.10
14705;DHT22;7442;50.840;3.396;2023-02-05T08:14:03;24.20;41.10
14705;DHT22;7442;50.840;3.396;2023-02-05T08:16:49;24.20;41.00
14705;DHT22;7442;50.840;3.396;2023-02-05T08:19:35;24.20;41.00
14705;DHT22;7442;50.840;3.396;2023-02-05T08:22:22;24.20;40.90
14705;DHT22;7442;50.840;3.396;2023-02-05T08:25:12;24.20;41.00
14705;DHT22;7442;50.840;3.396;2023-02-05T08:27:58;24.20;40.90
14705;DHT22;7442;50.840;3.396;2023-02-05T08:30:45;24.30;41.00
14705;DHT22;7442;50.840;3.396;2023-02-05T08:33:31;24.30;41.50
14705;DHT22;7442;50.840;3.396;2023-02-05T08:36:17;24.20;40.90
14705;DHT22;7442;50.840;3.396;2023-02-05T08:39:04;24.20;40.90
14705;DHT22;7442;50.840;3.396;2023-02-05T08:41:51;24.20;40.90
14705;DHT22;7442;50.840;3.396;2023-02-05T08:44:37;24.20;41.10
14705;DHT22;7442;50.840;3.396;2023-02-05T08:47:25;24.20;41.10
14705;DHT22;7442;50.840;3.396;2023-02-05T08:50:12;24.20;41.00
14705;DHT22;7442;50.840;3.396;2023-02-05T08:52:58;24.20;41.00
14705;DHT22;7442;50.840;3.396;2023-02-05T08:55:44;24.20;41.00
14705;DHT22;7442;50.840;3.396;2023-02-05T08:58:31;24.20;40.90
14705;DHT22;7442;50.840;3.396;2023-02-05T09:01:18;24.30;40.90
14705;DHT22;7442;50.840;3.396;2023-02-05T09:04:05;24.30;40.90
14705;DHT22;7442;50.840;3.396;2023-02-05T09:06:52;24.30;41.00
14705;DHT22;7442;50.840;3.396;2023-02-05T09:09:38;24.30;40.80
14705;DHT22;7442;50.840;3.396;2023-02-05T09:12:32;24.30;40.80
14705;DHT22;7442;50.840;3.396;2023-02-05T09:15:18;24.30;40.80
14705;DHT22;7442;50.840;3.396;2023-02-05T09:18:05;24.40;40.60
14705;DHT22;7442;50.840;3.396;2023-02-05T09:20:51;24.40;40.70
14705;DHT22;7442;50.840;3.396;2023-02-05T09:23:38;24.30;40.80
14705;DHT22;7442;50.840;3.396;2023-02-05T09:26:25;24.30;40.70
14705;DHT22;7442;50.840;3.396;2023-02-05T09:29:11;24.40;40.70
14705;DHT22;7442;50.840;3.396;2023-02-05T09:31:58;24.40;40.70
14705;DHT22;7442;50.840;3.396;2023-02-05T09:34:45;24.30;40.60
14705;DHT22;7442;50.840;3.396;2023-02-05T09:37:33;24.40;40.60
14705;DHT22;7442;50.840;3.396;2023-02-05T09:40:22;24.30;40.60
14705;DHT22;7442;50.840;3.396;2023-02-05T09:43:29;24.30;40.60
14705;DHT22;7442;50.840;3.396;2023-02-05T09:49:54;24.40;41.40
14705;DHT22;7442;50.840;3.396;2023-02-05T09:52:42;24.50;40.60
14705;DHT22;7442;50.840;3.396;2023-02-05T09:55:36;24.50;40.50
14705;DHT22;7442;50.840;3.396;2023-02-05T09:58:21;24.50;40.60
14705;DHT22;7442;50.840;3.396;2023-02-05T10:01:23;24.50;41.30
14705;DHT22;7442;50.840;3.396;2023-02-05T10:04:09;24.50;40.60
14705;DHT22;7442;50.840;3.396;2023-02-05T10:10:23;24.50;40.70
14705;DHT22;7442;50.840;3.396;2023-02-05T10:13:31;24.50;40.50
14705;DHT22;7442;50.840;3.396;2023-02-05T10:16:32;24.60;40.20
14705;DHT22;7442;50.840;3.396;2023-02-05T10:22:25;24.60;40.30
14705;DHT22;7442;50.840;3.396;2023-02-05T10:35:08;24.60;40.20
14705;DHT22;7442;50.840;3.396;2023-02-05T10:37:53;24.70;40.10
14705;DHT22;7442;50.840;3.396;2023-02-05T10:40:41;24.70;40.20
14705;DHT22;7442;50.840;3.396;2023-02-05T10:43:50;24.70;40.20
14705;DHT22;7442;50.840;3.396;2023-02-05T10:46:39;24.80;39.90
14705;DHT22;7442;50.840;3.396;2023-02-05T10:49:51;24.80;39.90
14705;DHT22;7442;50.840;3.396;2023-02-05T10:52:37;24.80;39.90
14705;DHT22;7442;50.840;3.396;2023-02-05T10:55:23;24.80;40.10
14705;DHT22;7442;50.840;3.396;2023-02-05T10:58:23;24.80;40.10
14705;DHT22;7442;50.840;3.396;2023-02-05T11:01:06;24.80;39.90
14705;DHT22;7442;50.840;3.396;2023-02-05T11:04:02;24.80;39.80
14705;DHT22;7442;50.840;3.396;2023-02-05T11:06:52;24.80;39.80
14705;DHT22;7442;50.840;3.396;2023-02-05T11:09:39;24.80;39.90
14705;DHT22;7442;50.840;3.396;2023-02-05T11:12:28;24.80;40.00
14705;DHT22;7442;50.840;3.396;2023-02-05T11:15:25;24.90;40.10
14705;DHT22;7442;50.840;3.396;2023-02-05T11:18:10;24.90;39.80
14705;DHT22;7442;50.840;3.396;2023-02-05T11:21:02;24.80;39.80
14705;DHT22;7442;50.840;3.396;2023-02-05T11:23:56;24.90;39.80
14705;DHT22;7442;50.840;3.396;2023-02-05T11:26:43;24.90;39.70
14705;DHT22;7442;50.840;3.396;2023-02-05T11:29:30;24.80;40.00
14705;DHT22;7442;50.840;3.396;2023-02-05T11:32:36;24.90;40.00
14705;DHT22;7442;50.840;3.396;2023-02-05T11:35:24;24.90;39.90
14705;DHT22;7442;50.840;3.396;2023-02-05T11:38:32;24.90;40.00
14705;DHT22;7442;50.840;3.396;2023-02-05T11:41:35;24.90;40.00
14705;DHT22;7442;50.840;3.396;2023-02-05T11:44:41;25.00;39.80
14705;DHT22;7442;50.840;3.396;2023-02-05T11:47:28;25.00;39.80
14705;DHT22;7442;50.840;3.396;2023-02-05T11:50:25;25.00;39.70
14705;DHT22;7442;50.840;3.396;2023-02-05T11:53:19;25.00;39.70
14705;DHT22;7442;50.840;3.396;2023-02-05T11:56:09;25.00;39.80
14705;DHT22;7442;50.840;3.396;2023-02-05T11:59:05;24.90;39.80
14705;DHT22;7442;50.840;3.396;2023-02-05T12:01:51;25.10;39.80
14705;DHT22;7442;50.840;3.396;2023-02-05T12:04:46;25.00;39.70
14705;DHT22;7442;50.840;3.396;2023-02-05T12:14:12;25.20;39.60
14705;DHT22;7442;50.840;3.396;2023-02-05T12:26:36;25.40;39.20
14705;DHT22;7442;50.840;3.396;2023-02-05T12:32:54;25.20;39.40
14705;DHT22;7442;50.840;3.396;2023-02-05T12:39:12;25.20;39.50
14705;DHT22;7442;50.840;3.396;2023-02-05T12:42:15;25.30;39.60
14705;DHT22;7442;50.840;3.396;2023-02-05T12:45:14;25.30;39.40
14705;DHT22;7442;50.840;3.396;2023-02-05T12:48:18;25.30;39.40
14705;DHT22;7442;50.840;3.396;2023-02-05T12:57:55;25.30;39.40
14705;DHT22;7442;50.840;3.396;2023-02-05T13:00:43;25.40;39.30
14705;DHT22;7442;50.840;3.396;2023-02-05T13:03:41;25.40;39.30
14705;DHT22;7442;50.840;3.396;2023-02-05T13:06:38;25.40;39.20
14705;DHT22;7442;50.840;3.396;2023-02-05T13:09:39;25.40;39.30
14705;DHT22;7442;50.840;3.396;2023-02-05T13:12:22;25.40;39.30
14705;DHT22;7442;50.840;3.396;2023-02-05T13:18:22;25.40;39.20
14705;DHT22;7442;50.840;3.396;2023-02-05T13:21:20;25.40;39.30
14705;DHT22;7442;50.840;3.396;2023-02-05T13:24:41;25.40;39.30
14705;DHT22;7442;50.840;3.396;2023-02-05T13:27:50;25.30;39.20
14705;DHT22;7442;50.840;3.396;2023-02-05T13:30:57;25.30;39.20
14705;DHT22;7442;50.840;3.396;2023-02-05T13:33:45;25.20;39.20
14705;DHT22;7442;50.840;3.396;2023-02-05T13:37:34;25.30;39.30
14705;DHT22;7442;50.840;3.396;2023-02-05T13:39:57;25.20;39.20
14705;DHT22;7442;50.840;3.396;2023-02-05T13:42:51;25.20;39.20
14705;DHT22;7442;50.840;3.396;2023-02-05T13:48:54;25.30;39.20
14705;DHT22;7442;50.840;3.396;2023-02-05T13:52:01;25.30;39.20
14705;DHT22;7442;50.840;3.396;2023-02-05T14:01:18;25.20;39.30
14705;DHT22;7442;50.840;3.396;2023-02-05T14:03:57;25.20;39.30
14705;DHT22;7442;50.840;3.396;2023-02-05T14:06:47;25.10;39.20
14705;DHT22;7442;50.840;3.396;2023-02-05T14:09:39;25.20;39.20
14705;DHT22;7442;50.840;3.396;2023-02-05T14:12:31;25.10;39.30
14705;DHT22;7442;50.840;3.396;2023-02-05T14:18:44;25.10;39.30
14705;DHT22;7442;50.840;3.396;2023-02-05T14:21:00;25.20;39.20
14705;DHT22;7442;50.840;3.396;2023-02-05T14:26:54;25.20;39.10
14705;DHT22;7442;50.840;3.396;2023-02-05T14:29:48;25.20;39.10
14705;DHT22;7442;50.840;3.396;2023-02-05T14:35:35;25.30;39.10
14705;DHT22;7442;50.840;3.396;2023-02-05T14:38:30;25.20;39.10
14705;DHT22;7442;50.840;3.396;2023-02-05T14:41:20;25.30;39.10
14705;DHT22;7442;50.840;3.396;2023-02-05T14:44:18;25.30;39.00
14705;DHT22;7442;50.840;3.396;2023-02-05T14:47:26;25.30;39.00
14705;DHT22;7442;50.840;3.396;2023-02-05T14:50:24;25.30;39.00
14705;DHT22;7442;50.840;3.396;2023-02-05T14:53:23;25.30;39.00
14705;DHT22;7442;50.840;3.396;2023-02-05T14:56:21;25.30;39.00
14705;DHT22;7442;50.840;3.396;2023-02-05T14:59:02;25.30;38.90
14705;DHT22;7442;50.840;3.396;2023-02-05T15:01:50;25.20;38.90
14705;DHT22;7442;50.840;3.396;2023-02-05T15:04:45;25.20;38.90
14705;DHT22;7442;50.840;3.396;2023-02-05T15:07:35;25.20;39.10
14705;DHT22;7442;50.840;3.396;2023-02-05T15:10:24;25.20;38.80
14705;DHT22;7442;50.840;3.396;2023-02-05T15:13:18;25.20;38.90
14705;DHT22;7442;50.840;3.396;2023-02-05T15:19:04;25.10;39.10
14705;DHT22;7442;50.840;3.396;2023-02-05T15:21:51;25.00;39.00
14705;DHT22;7442;50.840;3.396;2023-02-05T15:24:38;24.90;39.20
14705;DHT22;7442;50.840;3.396;2023-02-05T15:27:47;24.90;39.20
14705;DHT22;7442;50.840;3.396;2023-02-05T15:30:44;24.90;39.30
14705;DHT22;7442;50.840;3.396;2023-02-05T15:33:54;24.90;39.40
14705;DHT22;7442;50.840;3.396;2023-02-05T15:36:25;24.80;39.40
14705;DHT22;7442;50.840;3.396;2023-02-05T15:42:30;24.80;39.40
14705;DHT22;7442;50.840;3.396;2023-02-05T15:45:30;24.80;39.40
14705;DHT22;7442;50.840;3.396;2023-02-05T15:48:26;24.80;39.40
14705;DHT22;7442;50.840;3.396;2023-02-05T15:51:28;24.80;39.30
14705;DHT22;7442;50.840;3.396;2023-02-05T15:54:18;24.90;39.20
14705;DHT22;7442;50.840;3.396;2023-02-05T15:57:07;24.80;39.30
14705;DHT22;7442;50.840;3.396;2023-02-05T15:59:56;24.90;39.20
14705;DHT22;7442;50.840;3.396;2023-02-05T16:02:51;24.90;39.30
14705;DHT22;7442;50.840;3.396;2023-02-05T16:05:32;24.90;39.20
14705;DHT22;7442;50.840;3.396;2023-02-05T16:08:20;24.90;39.20
14705;DHT22;7442;50.840;3.396;2023-02-05T16:11:07;24.80;39.40
14705;DHT22;7442;50.840;3.396;2023-02-05T16:14:15;24.80;39.30
14705;DHT22;7442;50.840;3.396;2023-02-05T16:23:17;24.80;39.30
14705;DHT22;7442;50.840;3.396;2023-02-05T16:26:01;24.80;39.30
14705;DHT22;7442;50.840;3.396;2023-02-05T16:28:53;24.80;39.30
14705;DHT22;7442;50.840;3.396;2023-02-05T16:31:39;24.70;39.30
14705;DHT22;7442;50.840;3.396;2023-02-05T16:34:27;24.70;39.40
14705;DHT22;7442;50.840;3.396;2023-02-05T16:37:16;24.70;39.40
14705;DHT22;7442;50.840;3.396;2023-02-05T16:40:05;24.70;39.40
14705;DHT22;7442;50.840;3.396;2023-02-05T16:42:53;24.60;39.50
14705;DHT22;7442;50.840;3.396;2023-02-05T16:45:39;24.50;39.60
14705;DHT22;7442;50.840;3.396;2023-02-05T16:48:28;24.40;39.70
14705;DHT22;7442;50.840;3.396;2023-02-05T16:51:29;24.40;39.80
14705;DHT22;7442;50.840;3.396;2023-02-05T16:54:28;24.30;39.90
14705;DHT22;7442;50.840;3.396;2023-02-05T16:57:21;24.30;39.80
14705;DHT22;7442;50.840;3.396;2023-02-05T17:00:19;24.30;39.80
14705;DHT22;7442;50.840;3.396;2023-02-05T17:03:15;24.30;39.90
14705;DHT22;7442;50.840;3.396;2023-02-05T17:06:07;24.20;40.00
14705;DHT22;7442;50.840;3.396;2023-02-05T17:08:53;24.20;40.00
14705;DHT22;7442;50.840;3.396;2023-02-05T17:11:41;24.20;40.00
14705;DHT22;7442;50.840;3.396;2023-02-05T17:14:32;24.20;40.00
14705;DHT22;7442;50.840;3.396;2023-02-05T17:17:20;24.20;40.00
14705;DHT22;7442;50.840;3.396;2023-02-05T17:20:19;24.10;40.10
14705;DHT22;7442;50.840;3.396;2023-02-05T17:23:07;24.10;40.20
14705;DHT22;7442;50.840;3.396;2023-02-05T17:25:54;24.00;40.10
14705;DHT22;7442;50.840;3.396;2023-02-05T17:28:42;24.00;40.20
14705;DHT22;7442;50.840;3.396;2023-02-05T17:31:34;24.00;40.10
14705;DHT22;7442;50.840;3.396;2023-02-05T17:34:20;24.00;40.10
14705;DHT22;7442;50.840;3.396;2023-02-05T17:37:07;24.00;40.10
14705;DHT22;7442;50.840;3.396;2023-02-05T17:39:54;24.00;40.10
14705;DHT22;7442;50.840;3.396;2023-02-05T17:42:42;24.00;40.20
14705;DHT22;7442;50.840;3.396;2023-02-05T17:45:34;23.90;40.20
14705;DHT22;7442;50.840;3.396;2023-02-05T17:48:20;23.90;40.20
14705;DHT22;7442;50.840;3.396;2023-02-05T17:51:16;23.90;40.30
14705;DHT22;7442;50.840;3.396;2023-02-05T17:54:03;23.90;40.20
14705;DHT22;7442;50.840;3.396;2023-02-05T17:56:50;23.90;40.30
14705;DHT22;7442;50.840;3.396;2023-02-05T17:59:40;23.90;40.30
14705;DHT22;7442;50.840;3.396;2023-02-05T18:02:27;23.90;40.30
14705;DHT22;7442;50.840;3.396;2023-02-05T18:05:14;23.90;40.30
14705;DHT22;7442;50.840;3.396;2023-02-05T18:08:01;23.90;40.20
14705;DHT22;7442;50.840;3.396;2023-02-05T18:10:49;23.90;40.40
14705;DHT22;7442;50.840;3.396;2023-02-05T18:13:36;23.80;40.30
14705;DHT22;7442;50.840;3.396;2023-02-05T18:16:22;23.80;40.20
14705;DHT22;7442;50.840;3.396;2023-02-05T18:19:08;23.80;40.20
14705;DHT22;7442;50.840;3.396;2023-02-05T18:21:55;23.80;40.10
14705;DHT22;7442;50.840;3.396;2023-02-05T18:24:41;23.70;40.30
14705;DHT22;7442;50.840;3.396;2023-02-05T18:27:27;23.70;40.20
14705;DHT22;7442;50.840;3.396;2023-02-05T18:30:15;23.70;40.20
14705;DHT22;7442;50.840;3.396;2023-02-05T18:33:02;23.70;40.30
14705;DHT22;7442;50.840;3.396;2023-02-05T18:35:48;23.70;40.30
14705;DHT22;7442;50.840;3.396;2023-02-05T18:38:35;23.70;40.30
14705;DHT22;7442;50.840;3.396;2023-02-05T18:41:22;23.70;40.40
14705;DHT22;7442;50.840;3.396;2023-02-05T18:44:10;23.60;40.40
14705;DHT22;7442;50.840;3.396;2023-02-05T18:46:57;23.70;40.50
14705;DHT22;7442;50.840;3.396;2023-02-05T18:49:43;23.70;40.40
14705;DHT22;7442;50.840;3.396;2023-02-05T18:52:30;23.60;40.40
14705;DHT22;7442;50.840;3.396;2023-02-05T18:55:16;23.60;40.50
14705;DHT22;7442;50.840;3.396;2023-02-05T18:58:04;23.60;40.40
14705;DHT22;7442;50.840;3.396;2023-02-05T19:00:50;23.60;40.40
14705;DHT22;7442;50.840;3.396;2023-02-05T19:03:36;23.60;40.50
14705;DHT22;7442;50.840;3.396;2023-02-05T19:06:25;23.60;40.10
14705;DHT22;7442;50.840;3.396;2023-02-05T19:09:11;23.60;40.40
14705;DHT22;7442;50.840;3.396;2023-02-05T19:11:57;23.50;40.50
14705;DHT22;7442;50.840;3.396;2023-02-05T19:14:44;23.40;40.50
14705;DHT22;7442;50.840;3.396;2023-02-05T19:17:30;23.50;40.50
14705;DHT22;7442;50.840;3.396;2023-02-05T19:20:17;23.50;40.50
14705;DHT22;7442;50.840;3.396;2023-02-05T19:23:03;23.50;40.50
14705;DHT22;7442;50.840;3.396;2023-02-05T19:25:49;23.50;40.50
14705;DHT22;7442;50.840;3.396;2023-02-05T19:28:37;23.40;40.50
14705;DHT22;7442;50.840;3.396;2023-02-05T19:31:26;23.40;40.50
14705;DHT22;7442;50.840;3.396;2023-02-05T19:34:12;23.40;40.50
14705;DHT22;7442;50.840;3.396;2023-02-05T19:37:00;23.40;40.60
14705;DHT22;7442;50.840;3.396;2023-02-05T19:39:46;23.40;40.60
14705;DHT22;7442;50.840;3.396;2023-02-05T19:42:32;23.40;40.60
14705;DHT22;7442;50.840;3.396;2023-02-05T19:45:18;23.30;40.80
14705;DHT22;7442;50.840;3.396;2023-02-05T19:48:05;23.30;40.60
14705;DHT22;7442;50.840;3.396;2023-02-05T19:50:52;23.40;40.70
14705;DHT22;7442;50.840;3.396;2023-02-05T19:53:39;23.30;40.60